Aviation Digital Data Service (ADDS)

Output produced by TAFs form (0649 UTC 20 April 2014)
found at http://aviationweather.gov/adds/tafs/
 
KDMN 200520Z 2006/2106 28010KT P6SM VCSH SCT050CB BKN080 OVC150 
     TEMPO 2006/2010 6SM -SHRA BKN050 BKN100 
     FM201000 29010KT P6SM VCTS SCT050CB SCT100 BKN200 
     FM201800 27010KT P6SM SCT060 SCT120 SCT250 
     FM210500 30006KT P6SM FEW060